createdAt,value
2017-06-23T00:00:08.365Z,96.32
2017-06-23T00:01:09.746Z,97.33
2017-06-23T00:02:11.137Z,97.72
2017-06-23T00:03:12.520Z,97.72
2017-06-23T00:04:13.899Z,98.00
2017-06-23T00:05:15.276Z,97.72
2017-06-23T00:06:16.667Z,97.14
2017-06-23T00:07:18.051Z,96.32
2017-06-23T00:08:19.428Z,96.61
2017-06-23T00:09:20.814Z,98.24
2017-06-23T00:10:22.206Z,97.09
2017-06-23T00:11:23.593Z,96.80
2017-06-23T00:12:24.982Z,96.80
2017-06-23T00:13:26.364Z,97.52
2017-06-23T00:14:27.749Z,97.33
2017-06-23T00:15:29.128Z,97.52
2017-06-23T00:16:30.506Z,97.42
2017-06-23T00:17:31.896Z,97.91
2017-06-23T00:18:33.276Z,98.29
2017-06-23T00:19:34.653Z,97.52
2017-06-23T00:20:36.037Z,98.29
2017-06-23T00:21:37.415Z,98.49
2017-06-23T00:22:38.797Z,98.19
2017-06-23T00:23:40.180Z,98.00
2017-06-23T00:24:41.569Z,97.62
2017-06-23T00:25:42.942Z,97.33
2017-06-23T00:26:44.317Z,98.10
2017-06-23T00:27:45.694Z,98.58
2017-06-23T00:28:47.083Z,97.52
2017-06-23T00:29:48.468Z,98.00
2017-06-23T00:30:49.856Z,98.39
2017-06-23T00:31:51.236Z,98.10
2017-06-23T00:32:52.617Z,97.42
2017-06-23T00:33:53.990Z,97.14
2017-06-23T00:34:55.371Z,97.91
2017-06-23T00:35:56.760Z,97.91
2017-06-23T00:36:58.137Z,97.52
2017-06-23T00:37:59.512Z,97.62
2017-06-23T00:39:00.893Z,98.00
2017-06-23T00:40:02.285Z,97.91
2017-06-23T00:41:03.666Z,97.72
2017-06-23T00:42:05.047Z,97.81
2017-06-23T00:43:06.428Z,98.87
2017-06-23T00:44:07.799Z,98.39
2017-06-23T00:45:09.191Z,98.77
2017-06-23T00:46:10.577Z,98.39
2017-06-23T00:47:11.969Z,98.39
2017-06-23T00:48:13.351Z,98.58
2017-06-23T00:49:14.738Z,98.49
2017-06-23T00:50:16.123Z,98.00
2017-06-23T00:51:17.513Z,98.72
2017-06-23T00:52:18.892Z,98.58
2017-06-23T00:53:20.274Z,99.44
2017-06-23T00:54:21.650Z,98.77
2017-06-23T00:55:23.037Z,98.49
2017-06-23T00:56:24.418Z,98.15
2017-06-23T00:57:25.806Z,99.26
2017-06-23T00:58:27.186Z,98.87
2017-06-23T00:59:28.568Z,98.29
2017-06-23T01:00:29.942Z,98.39
2017-06-23T01:01:31.333Z,98.68
2017-06-23T01:02:32.763Z,99.74
2017-06-23T01:03:34.148Z,98.97
2017-06-23T01:04:35.526Z,98.97
2017-06-23T01:05:36.909Z,99.06
2017-06-23T01:06:38.293Z,97.81
2017-06-23T01:07:39.679Z,98.39
2017-06-23T01:08:41.058Z,98.77
2017-06-23T01:09:42.433Z,98.10
2017-06-23T01:10:43.825Z,98.10
2017-06-23T01:11:45.216Z,98.97
2017-06-23T01:12:46.608Z,99.26
2017-06-23T01:13:47.988Z,98.49
2017-06-23T01:14:49.381Z,98.39
2017-06-23T01:15:50.769Z,98.19
2017-06-23T01:16:52.148Z,98.39
2017-06-23T01:17:53.527Z,97.72
2017-06-23T01:18:54.911Z,97.91
2017-06-23T01:19:56.290Z,98.19
2017-06-23T01:20:57.668Z,98.49
2017-06-23T01:21:59.053Z,98.49
2017-06-23T01:23:00.444Z,98.10
2017-06-23T01:24:01.830Z,98.87
2017-06-23T01:25:03.225Z,97.62
2017-06-23T01:26:04.595Z,99.16
2017-06-23T01:27:05.977Z,98.97
2017-06-23T01:28:07.352Z,98.58
2017-06-23T01:29:08.743Z,98.77
2017-06-23T01:30:10.128Z,97.91
2017-06-23T01:31:11.508Z,98.39
2017-06-23T01:32:12.893Z,97.62
2017-06-23T01:33:14.275Z,98.58
2017-06-23T01:34:15.654Z,99.84
2017-06-23T01:35:17.034Z,98.68
2017-06-23T01:36:18.452Z,98.39
2017-06-23T01:37:19.834Z,97.91
2017-06-23T01:38:21.223Z,98.10
2017-06-23T01:39:22.603Z,98.87
2017-06-23T01:40:23.990Z,98.58
2017-06-23T01:41:25.368Z,98.19
2017-06-23T01:42:26.760Z,98.39
2017-06-23T01:43:28.143Z,98.58
2017-06-23T01:44:29.527Z,98.49
2017-06-23T01:45:30.906Z,97.86
2017-06-23T01:46:32.285Z,97.42
2017-06-23T01:47:33.675Z,97.72
2017-06-23T01:48:35.053Z,98.29
2017-06-23T01:49:36.435Z,97.42
2017-06-23T01:50:37.814Z,98.00
2017-06-23T01:51:39.196Z,98.19
2017-06-23T01:52:40.578Z,98.77
2017-06-23T01:53:41.971Z,98.77
2017-06-23T01:54:43.349Z,97.91
2017-06-23T01:55:44.730Z,98.68
2017-06-23T01:56:46.110Z,98.58
2017-06-23T01:57:47.495Z,98.10
2017-06-23T01:58:48.874Z,98.39
2017-06-23T01:59:50.255Z,98.39
2017-06-23T02:00:51.635Z,97.81
2017-06-23T02:01:53.013Z,98.97
2017-06-23T02:02:54.393Z,98.77
2017-06-23T02:03:55.775Z,98.58
2017-06-23T02:04:57.157Z,97.81
2017-06-23T02:05:58.538Z,98.39
2017-06-23T02:06:59.915Z,98.29
2017-06-23T02:08:01.296Z,97.33
2017-06-23T02:09:02.684Z,97.62
2017-06-23T02:10:04.068Z,97.91
2017-06-23T02:11:05.444Z,97.52
2017-06-23T02:12:06.825Z,98.15
2017-06-23T02:13:08.206Z,99.35
2017-06-23T02:14:09.593Z,98.58
2017-06-23T02:15:10.975Z,98.77
2017-06-23T02:16:12.369Z,98.87
2017-06-23T02:17:13.786Z,98.97
2017-06-23T02:18:15.180Z,98.10
2017-06-23T02:19:16.564Z,99.06
2017-06-23T02:20:17.941Z,98.77
2017-06-23T02:21:19.327Z,98.58
2017-06-23T02:22:20.705Z,98.39
2017-06-23T02:23:22.089Z,98.19
2017-06-23T02:24:23.466Z,97.86
2017-06-23T02:25:24.844Z,97.72
2017-06-23T02:26:26.223Z,98.39
2017-06-23T02:27:27.615Z,99.35
2017-06-23T02:28:28.998Z,99.26
2017-06-23T02:29:30.384Z,98.87
2017-06-23T02:30:31.761Z,99.06
2017-06-23T02:31:33.149Z,98.49
2017-06-23T02:32:34.528Z,99.26
2017-06-23T02:33:35.906Z,98.97
2017-06-23T02:34:37.290Z,97.72
2017-06-23T02:35:38.672Z,97.62
2017-06-23T02:36:40.056Z,98.39
2017-06-23T02:37:41.435Z,98.68
2017-06-23T02:38:42.819Z,98.39
2017-06-23T02:39:44.195Z,98.39
2017-06-23T02:40:45.575Z,97.91
2017-06-23T02:41:46.955Z,97.72
2017-06-23T02:42:48.415Z,97.62
2017-06-23T02:43:49.798Z,98.19
2017-06-23T02:44:51.177Z,97.62
2017-06-23T02:45:52.556Z,96.85
2017-06-23T02:46:53.933Z,96.75
2017-06-23T02:47:55.314Z,97.62
2017-06-23T02:48:56.698Z,97.14
2017-06-23T02:49:58.072Z,96.94
2017-06-23T02:50:59.462Z,96.89
2017-06-23T02:52:00.845Z,96.37
2017-06-23T02:53:02.228Z,95.69
2017-06-23T02:54:03.598Z,96.85
2017-06-23T02:55:04.984Z,95.60
2017-06-23T02:56:06.360Z,95.31
2017-06-23T02:57:07.746Z,96.08
2017-06-23T02:58:09.133Z,96.89
2017-06-23T02:59:10.516Z,96.46
2017-06-23T03:00:11.894Z,96.17
2017-06-23T03:01:13.281Z,96.08
2017-06-23T03:02:14.666Z,97.42
2017-06-23T03:03:16.052Z,96.66
2017-06-23T03:04:17.438Z,96.99
2017-06-23T03:05:18.816Z,96.61
2017-06-23T03:06:20.199Z,96.89
2017-06-23T03:07:21.586Z,96.51
2017-06-23T03:08:22.966Z,96.80
2017-06-23T03:09:24.350Z,96.70
2017-06-23T03:10:25.735Z,97.28
2017-06-23T03:11:27.132Z,96.46
2017-06-23T03:12:28.519Z,96.22
2017-06-23T03:13:29.898Z,96.61
2017-06-23T03:14:31.288Z,96.12
2017-06-23T03:15:32.707Z,97.42
2017-06-23T03:16:34.137Z,96.61
2017-06-23T03:17:35.520Z,98.05
2017-06-23T03:18:36.900Z,97.09
2017-06-23T03:19:38.291Z,96.32
2017-06-23T03:20:39.669Z,97.09
2017-06-23T03:21:41.049Z,96.80
2017-06-23T03:22:42.443Z,97.67
2017-06-23T03:23:43.825Z,96.70
2017-06-23T03:24:45.206Z,98.05
2017-06-23T03:25:46.594Z,96.89
2017-06-23T03:26:47.979Z,97.57
2017-06-23T03:27:49.356Z,96.89
2017-06-23T03:28:50.739Z,97.67
2017-06-23T03:29:52.125Z,96.51
2017-06-23T03:30:53.507Z,97.67
2017-06-23T03:31:54.892Z,96.89
2017-06-23T03:32:56.279Z,98.14
2017-06-23T03:33:57.663Z,97.86
2017-06-23T03:34:59.048Z,96.80
2017-06-23T03:36:00.447Z,96.61
2017-06-23T03:37:01.840Z,96.80
2017-06-23T03:38:03.221Z,96.80
2017-06-23T03:39:04.602Z,96.99
2017-06-23T03:40:05.987Z,96.99
2017-06-23T03:41:07.377Z,96.80
2017-06-23T03:42:08.758Z,96.51
2017-06-23T03:43:10.147Z,96.51
2017-06-23T03:44:11.524Z,96.12
2017-06-23T03:45:12.908Z,96.03
2017-06-23T03:46:14.281Z,95.07
2017-06-23T03:47:15.666Z,95.94
2017-06-23T03:48:17.043Z,96.42
2017-06-23T03:49:18.427Z,97.19
2017-06-23T03:50:19.808Z,95.74
2017-06-23T03:51:21.188Z,96.80
2017-06-23T03:52:22.626Z,96.80
2017-06-23T03:53:24.004Z,96.61
2017-06-23T03:54:25.385Z,96.51
2017-06-23T03:55:26.770Z,95.17
2017-06-23T03:56:28.152Z,96.42
2017-06-23T03:57:29.539Z,96.61
2017-06-23T03:58:30.917Z,97.09
2017-06-23T03:59:32.292Z,96.61
2017-06-23T04:00:33.681Z,96.12
2017-06-23T04:01:35.054Z,96.61
2017-06-23T04:02:36.442Z,96.51
2017-06-23T04:03:37.822Z,96.80
2017-06-23T04:04:39.209Z,96.32
2017-06-23T04:05:40.589Z,96.12
2017-06-23T04:06:41.975Z,96.42
2017-06-23T04:07:43.357Z,96.32
2017-06-23T04:08:44.813Z,95.94
2017-06-23T04:09:46.198Z,96.70
2017-06-23T04:10:47.576Z,96.70
2017-06-23T04:11:48.955Z,95.94
2017-06-23T04:12:50.335Z,97.38
2017-06-23T04:13:51.742Z,96.80
2017-06-23T04:14:53.115Z,96.42
2017-06-23T04:15:54.499Z,98.05
2017-06-23T04:16:55.877Z,96.61
2017-06-23T04:17:57.262Z,97.33
2017-06-23T04:18:58.651Z,97.28
2017-06-23T04:20:00.038Z,97.76
2017-06-23T04:21:01.418Z,96.70
2017-06-23T04:22:02.804Z,97.67
2017-06-23T04:23:04.191Z,96.70
2017-06-23T04:24:05.576Z,96.51
2017-06-23T04:25:06.960Z,96.80
2017-06-23T04:26:08.421Z,96.61
2017-06-23T04:27:09.812Z,97.19
2017-06-23T04:28:11.194Z,96.66
2017-06-23T04:29:12.579Z,96.94
2017-06-23T04:30:13.964Z,97.14
2017-06-23T04:31:15.350Z,97.24
2017-06-23T04:32:16.741Z,97.09
2017-06-23T04:33:18.124Z,96.85
2017-06-23T04:34:19.509Z,97.72
2017-06-23T04:35:20.898Z,97.62
2017-06-23T04:36:22.279Z,97.62
2017-06-23T04:37:23.659Z,97.04
2017-06-23T04:38:25.044Z,98.34
2017-06-23T04:39:26.425Z,97.91
2017-06-23T04:40:27.808Z,97.72
2017-06-23T04:41:29.198Z,98.00
2017-06-23T04:42:30.578Z,97.33
2017-06-23T04:43:31.976Z,98.00
2017-06-23T04:44:33.352Z,98.49
2017-06-23T04:45:34.760Z,97.52
2017-06-23T04:46:36.139Z,97.24
2017-06-23T04:47:37.526Z,97.24
2017-06-23T04:48:38.911Z,96.94
2017-06-23T04:49:40.294Z,96.94
2017-06-23T04:50:41.675Z,97.81
2017-06-23T04:51:43.055Z,97.62
2017-06-23T04:52:44.438Z,98.77
2017-06-23T04:53:45.823Z,97.91
2017-06-23T04:54:47.211Z,98.39
2017-06-23T04:55:48.595Z,97.91
2017-06-23T04:56:49.989Z,98.29
2017-06-23T04:57:51.373Z,98.19
2017-06-23T04:58:52.757Z,98.77
2017-06-23T04:59:54.135Z,98.00
2017-06-23T05:00:55.520Z,97.81
2017-06-23T05:01:56.905Z,97.91
2017-06-23T05:02:58.292Z,97.52
2017-06-23T05:03:59.670Z,97.81
2017-06-23T05:05:01.057Z,97.62
2017-06-23T05:06:02.443Z,98.29
2017-06-23T05:07:03.858Z,97.81
2017-06-23T05:08:05.242Z,96.94
2017-06-23T05:09:06.621Z,97.42
2017-06-23T05:10:08.007Z,98.39
2017-06-23T05:11:09.399Z,97.91
2017-06-23T05:12:10.787Z,98.29
2017-06-23T05:13:12.169Z,98.87
2017-06-23T05:14:13.555Z,98.87
2017-06-23T05:15:14.943Z,98.97
2017-06-23T05:16:16.329Z,99.64
2017-06-23T05:17:17.714Z,98.77
2017-06-23T05:18:19.099Z,99.99
2017-06-23T05:19:20.491Z,99.84
2017-06-23T05:20:21.879Z,99.84
2017-06-23T05:21:23.257Z,99.84
2017-06-23T05:22:24.645Z,98.77
2017-06-23T05:23:26.038Z,98.39
2017-06-23T05:24:27.431Z,98.77
2017-06-23T05:25:28.816Z,98.77
2017-06-23T05:26:30.199Z,99.35
2017-06-23T05:27:31.585Z,98.49
2017-06-23T05:28:32.972Z,98.58
2017-06-23T05:29:34.357Z,98.77
2017-06-23T05:30:35.742Z,98.39
2017-06-23T05:31:37.128Z,99.93
2017-06-23T05:32:38.524Z,99.69
2017-06-23T05:33:39.897Z,99.99
2017-06-23T05:34:41.276Z,99.35
2017-06-23T05:35:42.669Z,99.84
2017-06-23T05:36:44.160Z,99.84
2017-06-23T05:37:45.547Z,99.64
2017-06-23T05:38:46.930Z,99.64
2017-06-23T05:39:48.312Z,99.64
2017-06-23T05:40:49.695Z,98.00
2017-06-23T05:41:51.096Z,98.49
2017-06-23T05:42:52.479Z,98.97
2017-06-23T05:43:53.867Z,99.06
2017-06-23T05:44:55.254Z,99.88
2017-06-23T05:45:56.641Z,99.79
2017-06-23T05:46:58.034Z,99.40
2017-06-23T05:47:59.422Z,99.88
2017-06-23T05:49:00.809Z,99.84
2017-06-23T05:50:02.193Z,99.99
2017-06-23T05:51:03.574Z,99.99
2017-06-23T05:52:04.963Z,99.99
2017-06-23T05:53:06.347Z,99.99
2017-06-23T05:54:07.734Z,99.88
2017-06-23T05:55:09.115Z,99.99
2017-06-23T05:56:10.505Z,99.98
2017-06-23T05:57:12.335Z,99.99
2017-06-23T05:58:13.720Z,99.99
2017-06-23T05:59:15.109Z,99.99
2017-06-23T06:00:16.495Z,99.99
2017-06-23T06:01:17.881Z,99.99
2017-06-23T06:02:19.263Z,99.99
2017-06-23T06:03:20.648Z,99.99
2017-06-23T06:04:22.033Z,99.99
2017-06-23T06:05:23.411Z,99.99
2017-06-23T06:06:24.795Z,99.99
2017-06-23T06:07:26.191Z,99.99
2017-06-23T06:08:27.573Z,99.99
2017-06-23T06:09:28.957Z,99.99
2017-06-23T06:10:30.564Z,99.99
2017-06-23T06:11:31.949Z,99.99
2017-06-23T06:12:33.670Z,99.99
2017-06-23T06:13:35.058Z,99.99
2017-06-23T06:14:36.589Z,99.99
2017-06-23T06:15:38.255Z,99.99
2017-06-23T06:16:39.637Z,99.99
2017-06-23T06:17:41.025Z,99.99
2017-06-23T06:18:42.611Z,99.99
2017-06-23T06:19:43.995Z,99.99
2017-06-23T06:20:45.382Z,99.99
2017-06-23T06:21:46.767Z,99.99
2017-06-23T06:22:48.157Z,99.99
2017-06-23T06:23:49.546Z,99.99
2017-06-23T06:24:50.940Z,99.99
2017-06-23T06:25:52.337Z,99.99
2017-06-23T06:26:53.737Z,99.99
2017-06-23T06:27:55.099Z,99.99
2017-06-23T06:28:56.485Z,99.99
2017-06-23T06:29:57.877Z,99.99
2017-06-23T06:30:59.267Z,99.99
2017-06-23T06:32:00.651Z,99.99
2017-06-23T06:33:02.061Z,99.99
2017-06-23T06:34:03.450Z,99.99
2017-06-23T06:35:05.167Z,99.99
2017-06-23T06:36:06.449Z,99.99
2017-06-23T06:37:08.049Z,99.99
2017-06-23T06:38:09.437Z,99.99
2017-06-23T06:39:10.831Z,99.99
2017-06-23T06:40:12.389Z,99.99
2017-06-23T06:41:13.770Z,99.99
2017-06-23T06:42:15.160Z,99.99
2017-06-23T06:43:16.543Z,99.99
2017-06-23T06:44:17.934Z,99.84
2017-06-23T06:45:19.308Z,99.93
2017-06-23T06:46:20.698Z,99.93
2017-06-23T06:47:22.093Z,99.55
2017-06-23T06:48:23.480Z,99.99
2017-06-23T06:49:24.873Z,99.26
2017-06-23T06:50:26.264Z,99.93
2017-06-23T06:51:27.642Z,99.99
2017-06-23T06:52:29.045Z,99.93
2017-06-23T06:53:30.436Z,98.87
2017-06-23T06:54:31.820Z,98.25
2017-06-23T06:55:33.215Z,97.86
2017-06-23T06:56:34.598Z,97.86
2017-06-23T06:57:35.991Z,98.05
2017-06-23T06:58:37.378Z,98.15
2017-06-23T06:59:38.768Z,97.91
2017-06-23T07:00:40.160Z,97.47
2017-06-23T07:01:41.544Z,98.05
2017-06-23T07:02:42.932Z,96.99
2017-06-23T07:03:44.314Z,97.57
2017-06-23T07:04:45.703Z,97.57
2017-06-23T07:05:47.092Z,98.05
2017-06-23T07:06:48.572Z,96.32
2017-06-23T07:07:49.970Z,97.96
2017-06-23T07:08:51.364Z,97.09
2017-06-23T07:09:52.801Z,96.89
2017-06-23T07:10:54.230Z,97.19
2017-06-23T07:11:55.675Z,97.86
2017-06-23T07:12:57.065Z,98.15
2017-06-23T07:13:58.460Z,98.34
2017-06-23T07:14:59.844Z,98.92
2017-06-23T07:16:01.229Z,98.82
2017-06-23T07:17:02.619Z,97.77
2017-06-23T07:18:04.002Z,96.84
2017-06-23T07:19:05.394Z,95.59
2017-06-23T07:20:06.776Z,95.83
2017-06-23T07:21:08.162Z,93.80
2017-06-23T07:22:09.547Z,94.92
2017-06-23T07:23:10.927Z,94.24
2017-06-23T07:24:12.319Z,95.79
2017-06-23T07:25:14.301Z,96.27
2017-06-23T07:26:15.698Z,94.43
2017-06-23T07:27:17.086Z,94.92
2017-06-23T07:28:18.469Z,94.20
2017-06-23T07:29:19.862Z,94.68
2017-06-23T07:30:21.246Z,93.28
2017-06-23T07:31:22.629Z,94.05
2017-06-23T07:32:24.013Z,94.15
2017-06-23T07:33:25.402Z,93.23
2017-06-23T07:34:26.791Z,94.29
2017-06-23T07:35:28.177Z,94.20
2017-06-23T07:36:29.572Z,95.21
2017-06-23T07:37:30.958Z,93.66
2017-06-23T07:38:32.342Z,94.05
2017-06-23T07:39:33.723Z,95.31
2017-06-23T07:40:35.114Z,96.46
2017-06-23T07:41:36.501Z,95.21
2017-06-23T07:42:37.895Z,94.92
2017-06-23T07:43:39.281Z,94.82
2017-06-23T07:44:40.680Z,95.01
2017-06-23T07:45:42.070Z,94.34
2017-06-23T07:46:43.463Z,94.92
2017-06-23T07:47:44.849Z,92.99
2017-06-23T07:48:46.241Z,93.37
2017-06-23T07:49:47.628Z,93.95
2017-06-23T07:50:49.025Z,93.23
2017-06-23T07:51:50.411Z,93.42
2017-06-23T07:52:51.799Z,93.47
2017-06-23T07:53:53.183Z,94.53
2017-06-23T07:54:54.570Z,95.21
2017-06-23T07:55:55.959Z,94.63
2017-06-23T07:56:57.354Z,94.34
2017-06-23T07:57:58.741Z,94.63
2017-06-23T07:59:00.133Z,93.28
2017-06-23T08:00:01.518Z,95.21
2017-06-23T08:01:03.247Z,93.66
2017-06-23T08:02:04.607Z,93.37
2017-06-23T08:03:05.996Z,92.70
2017-06-23T08:04:07.382Z,93.95
2017-06-23T08:05:08.766Z,92.65
2017-06-23T08:06:10.155Z,92.89
2017-06-23T08:07:11.548Z,93.32
2017-06-23T08:08:13.656Z,94.29
2017-06-23T08:09:15.107Z,93.37
2017-06-23T08:10:16.499Z,93.04
2017-06-23T08:11:17.888Z,93.42
2017-06-23T08:12:19.305Z,94.38
2017-06-23T08:13:20.692Z,93.37
2017-06-23T08:14:22.082Z,92.99
2017-06-23T08:15:23.483Z,93.42
2017-06-23T08:16:24.877Z,92.74
2017-06-23T08:17:26.265Z,93.04
2017-06-23T08:18:27.659Z,93.04
2017-06-23T08:19:29.045Z,93.04
2017-06-23T08:20:30.450Z,92.46
2017-06-23T08:21:31.815Z,91.88
2017-06-23T08:22:33.207Z,93.04
2017-06-23T08:23:34.593Z,91.73
2017-06-23T08:24:36.021Z,92.79
2017-06-23T08:25:37.410Z,90.95
2017-06-23T08:26:38.796Z,92.21
2017-06-23T08:27:40.188Z,91.25
2017-06-23T08:28:41.578Z,92.07
2017-06-23T08:29:42.960Z,91.73
2017-06-23T08:30:44.351Z,91.05
2017-06-23T08:31:45.737Z,92.07
2017-06-23T08:32:47.118Z,90.72
2017-06-23T08:33:48.500Z,89.03
2017-06-23T08:34:49.892Z,90.72
2017-06-23T08:35:51.278Z,90.09
2017-06-23T08:36:52.662Z,90.23
2017-06-23T08:37:54.048Z,88.89
2017-06-23T08:38:55.436Z,89.17
2017-06-23T08:39:56.827Z,90.23
2017-06-23T08:40:58.222Z,91.05
2017-06-23T08:41:59.605Z,91.25
2017-06-23T08:43:00.987Z,90.52
2017-06-23T08:44:02.371Z,90.42
2017-06-23T08:45:03.767Z,90.09
2017-06-23T08:46:05.162Z,90.37
2017-06-23T08:47:06.550Z,89.70
2017-06-23T08:48:07.930Z,91.44
2017-06-23T08:49:09.323Z,89.12
2017-06-23T08:50:10.710Z,89.03
2017-06-23T08:51:12.103Z,89.12
2017-06-23T08:52:13.496Z,87.87
2017-06-23T08:53:14.880Z,88.49
2017-06-23T08:54:16.269Z,88.20
2017-06-23T08:55:17.674Z,88.64
2017-06-23T08:56:19.058Z,88.15
2017-06-23T08:57:20.448Z,89.70
2017-06-23T08:58:21.837Z,90.42
2017-06-23T08:59:23.227Z,86.07
2017-06-23T09:00:24.698Z,89.07
2017-06-23T09:01:26.084Z,86.85
2017-06-23T09:02:27.473Z,88.01
2017-06-23T09:03:28.858Z,88.59
2017-06-23T09:04:30.246Z,88.68
2017-06-23T09:05:31.639Z,87.62
2017-06-23T09:06:33.026Z,87.52
2017-06-23T09:07:34.410Z,88.20
2017-06-23T09:08:35.802Z,86.80
2017-06-23T09:09:37.289Z,88.64
2017-06-23T09:10:38.696Z,88.06
2017-06-23T09:11:40.090Z,89.41
2017-06-23T09:12:42.000Z,88.10
2017-06-23T09:13:43.381Z,87.23
2017-06-23T09:14:44.775Z,87.52
2017-06-23T09:15:46.170Z,87.71
2017-06-23T09:16:47.564Z,88.20
2017-06-23T09:17:48.950Z,88.73
2017-06-23T09:18:50.344Z,87.47
2017-06-23T09:19:51.728Z,89.31
2017-06-23T09:20:53.114Z,86.75
2017-06-23T09:21:54.509Z,88.24
2017-06-23T09:22:55.901Z,87.52
2017-06-23T09:23:58.222Z,87.47
2017-06-23T09:24:59.609Z,86.79
2017-06-23T09:26:00.996Z,87.99
2017-06-23T09:27:02.384Z,87.08
2017-06-23T09:28:03.770Z,88.15
2017-06-23T09:29:05.169Z,85.40
2017-06-23T09:30:06.557Z,86.07
2017-06-23T09:31:07.947Z,85.78
2017-06-23T09:32:09.345Z,85.88
2017-06-23T09:33:10.727Z,85.98
2017-06-23T09:34:12.118Z,86.79
2017-06-23T09:35:13.507Z,85.93
2017-06-23T09:36:14.899Z,84.57
2017-06-23T09:37:16.285Z,85.44
2017-06-23T09:38:17.672Z,85.35
2017-06-23T09:39:19.058Z,83.89
2017-06-23T09:40:20.451Z,82.64
2017-06-23T09:41:21.828Z,84.13
2017-06-23T09:42:23.216Z,81.27
2017-06-23T09:43:24.609Z,81.65
2017-06-23T09:44:25.997Z,79.72
2017-06-23T09:45:27.396Z,80.11
2017-06-23T09:46:28.778Z,80.11
2017-06-23T09:47:30.190Z,79.43
2017-06-23T09:48:31.575Z,79.91
2017-06-23T09:49:32.970Z,80.82
2017-06-23T09:50:34.362Z,79.85
2017-06-23T09:51:35.751Z,79.24
2017-06-23T09:52:37.150Z,80.24
2017-06-23T09:53:38.540Z,79.52
2017-06-23T09:54:39.929Z,80.11
2017-06-23T09:55:41.314Z,79.33
2017-06-23T09:56:42.703Z,79.87
2017-06-23T09:57:44.097Z,80.16
2017-06-23T09:58:46.249Z,80.07
2017-06-23T09:59:47.642Z,81.13
2017-06-23T10:00:49.032Z,82.48
2017-06-23T10:01:50.422Z,81.32
2017-06-23T10:02:51.807Z,81.23
2017-06-23T10:03:53.195Z,81.62
2017-06-23T10:04:54.645Z,81.81
2017-06-23T10:05:56.037Z,81.38
2017-06-23T10:06:57.430Z,80.80
2017-06-23T10:07:58.818Z,81.67
2017-06-23T10:09:00.215Z,80.12
2017-06-23T10:10:01.608Z,80.46
2017-06-23T10:11:03.006Z,79.78
2017-06-23T10:12:04.399Z,80.07
2017-06-23T10:13:05.789Z,80.41
2017-06-23T10:14:07.179Z,79.74
2017-06-23T10:15:08.564Z,79.10
2017-06-23T10:16:09.950Z,79.33
2017-06-23T10:17:11.340Z,77.92
2017-06-23T10:18:12.731Z,78.02
2017-06-23T10:19:14.127Z,78.08
2017-06-23T10:20:15.524Z,76.66
2017-06-23T10:21:16.907Z,77.44
2017-06-23T10:22:18.306Z,77.11
2017-06-23T10:23:19.691Z,78.56
2017-06-23T10:24:21.077Z,78.75
2017-06-23T10:25:22.467Z,79.43
2017-06-23T10:26:23.851Z,78.56
2017-06-23T10:27:25.241Z,77.94
2017-06-23T10:28:26.639Z,78.42
2017-06-23T10:29:28.031Z,79.83
2017-06-23T10:30:29.431Z,79.64
2017-06-23T10:31:30.810Z,80.71
2017-06-23T10:32:32.201Z,79.87
2017-06-23T10:33:33.587Z,80.30
2017-06-23T10:34:34.981Z,79.33
2017-06-23T10:35:36.370Z,78.79
2017-06-23T10:36:37.765Z,79.47
2017-06-23T10:37:39.161Z,79.33
2017-06-23T10:38:40.551Z,78.17
2017-06-23T10:39:41.956Z,79.82
2017-06-23T10:40:43.335Z,78.46
2017-06-23T10:41:44.767Z,79.04
2017-06-23T10:42:46.212Z,80.11
2017-06-23T10:43:47.598Z,79.82
2017-06-23T10:44:48.991Z,80.59
2017-06-23T10:45:50.379Z,81.17
2017-06-23T10:46:51.773Z,81.56
2017-06-23T10:47:53.150Z,81.40
2017-06-23T10:48:54.551Z,79.08
2017-06-23T10:49:55.944Z,80.79
2017-06-23T10:50:57.628Z,80.34
2017-06-23T10:51:59.018Z,79.85
2017-06-23T10:53:00.406Z,81.40
2017-06-23T10:54:01.805Z,78.54
2017-06-23T10:55:03.192Z,76.60
2017-06-23T10:56:04.581Z,75.92
2017-06-23T10:57:05.970Z,76.35
2017-06-23T10:58:07.366Z,77.22
2017-06-23T10:59:08.761Z,78.29
2017-06-23T11:00:10.152Z,77.42
2017-06-23T11:01:11.539Z,76.06
2017-06-23T11:02:12.939Z,75.96
2017-06-23T11:03:14.316Z,77.32
2017-06-23T11:04:16.398Z,77.12
2017-06-23T11:05:17.786Z,76.83
2017-06-23T11:06:19.177Z,75.92
2017-06-23T11:07:20.568Z,76.74
2017-06-23T11:08:21.955Z,76.31
2017-06-23T11:09:23.348Z,77.70
2017-06-23T11:10:24.742Z,76.70
2017-06-23T11:11:26.133Z,77.67
2017-06-23T11:12:27.527Z,77.53
2017-06-23T11:13:28.914Z,75.98
2017-06-23T11:14:30.330Z,76.21
2017-06-23T11:15:31.720Z,77.28
2017-06-23T11:16:33.109Z,76.93
2017-06-23T11:17:34.500Z,76.54
2017-06-23T11:18:35.889Z,76.25
2017-06-23T11:19:37.282Z,75.57
2017-06-23T11:20:38.670Z,76.15
2017-06-23T11:21:40.058Z,76.70
2017-06-23T11:22:41.452Z,79.12
2017-06-23T11:23:42.839Z,78.54
2017-06-23T11:24:44.233Z,76.60
2017-06-23T11:25:45.617Z,77.96
2017-06-23T11:26:47.012Z,77.73
2017-06-23T11:27:48.482Z,75.34
2017-06-23T11:28:49.810Z,76.31
2017-06-23T11:29:51.207Z,75.63
2017-06-23T11:30:52.599Z,77.09
2017-06-23T11:31:53.990Z,76.35
2017-06-23T11:32:55.382Z,77.03
2017-06-23T11:33:56.769Z,75.05
2017-06-23T11:34:58.158Z,75.34
2017-06-23T11:35:59.548Z,76.12
2017-06-23T11:37:00.938Z,76.31
2017-06-23T11:38:02.349Z,76.79
2017-06-23T11:39:03.720Z,75.83
2017-06-23T11:40:05.107Z,76.66
2017-06-23T11:41:06.503Z,76.95
2017-06-23T11:42:07.937Z,76.76
2017-06-23T11:43:09.332Z,76.86
2017-06-23T11:44:10.724Z,78.05
2017-06-23T11:45:12.113Z,76.89
2017-06-23T11:46:13.494Z,76.79
2017-06-23T11:47:14.892Z,76.70
2017-06-23T11:48:16.279Z,76.21
2017-06-23T11:49:17.670Z,76.79
2017-06-23T11:50:19.062Z,77.96
2017-06-23T11:51:20.445Z,75.83
2017-06-23T11:52:21.838Z,75.67
2017-06-23T11:53:23.237Z,75.83
2017-06-23T11:54:24.630Z,76.15
2017-06-23T11:55:26.016Z,76.31
2017-06-23T11:56:27.412Z,76.89
2017-06-23T11:57:28.802Z,77.82
2017-06-23T11:58:30.195Z,78.31
2017-06-23T11:59:31.586Z,79.17
2017-06-23T12:00:32.980Z,78.50
2017-06-23T12:01:34.368Z,79.08
2017-06-23T12:02:35.759Z,78.79
2017-06-23T12:03:37.161Z,78.92
2017-06-23T12:04:38.551Z,77.76
2017-06-23T12:05:39.936Z,76.10
2017-06-23T12:06:41.328Z,75.87
2017-06-23T12:07:42.718Z,76.74
2017-06-23T12:08:44.095Z,77.28
2017-06-23T12:09:45.485Z,76.02
2017-06-23T12:10:46.869Z,77.09
2017-06-23T12:11:48.261Z,79.37
2017-06-23T12:12:49.652Z,79.76
2017-06-23T12:13:51.038Z,79.43
2017-06-23T12:14:52.431Z,79.91
2017-06-23T12:15:53.817Z,79.43
2017-06-23T12:16:55.210Z,78.66
2017-06-23T12:17:56.597Z,79.82
2017-06-23T12:18:57.984Z,80.54
2017-06-23T12:19:59.375Z,79.76
2017-06-23T12:21:00.774Z,78.50
2017-06-23T12:22:02.164Z,78.89
2017-06-23T12:23:03.551Z,78.59
2017-06-23T12:24:04.939Z,78.31
2017-06-23T12:25:06.333Z,78.02
2017-06-23T12:26:07.721Z,76.08
2017-06-23T12:27:09.110Z,75.83
2017-06-23T12:28:10.499Z,76.19
2017-06-23T12:29:11.890Z,74.93
2017-06-23T12:30:13.276Z,72.83
2017-06-23T12:31:14.667Z,72.55
2017-06-23T12:32:16.056Z,71.93
2017-06-23T12:33:17.442Z,70.99
2017-06-23T12:34:18.835Z,70.03
2017-06-23T12:35:20.229Z,71.25
2017-06-23T12:36:21.613Z,71.64
2017-06-23T12:37:23.005Z,73.58
2017-06-23T12:38:24.395Z,73.09
2017-06-23T12:39:25.795Z,72.74
2017-06-23T12:40:27.210Z,70.80
2017-06-23T12:41:28.600Z,71.03
2017-06-23T12:42:29.990Z,72.03
2017-06-23T12:43:31.375Z,72.03
2017-06-23T12:44:32.771Z,69.51
2017-06-23T12:45:34.163Z,70.19
2017-06-23T12:46:35.552Z,70.22
2017-06-23T12:47:36.952Z,69.51
2017-06-23T12:48:38.338Z,71.10
2017-06-23T12:49:39.732Z,69.06
2017-06-23T12:50:41.117Z,69.41
2017-06-23T12:51:42.528Z,68.48
2017-06-23T12:52:43.904Z,69.02
2017-06-23T12:53:45.293Z,68.87
2017-06-23T12:54:46.688Z,68.77
2017-06-23T12:55:48.077Z,66.21
2017-06-23T12:56:49.476Z,65.72
2017-06-23T12:57:50.870Z,63.78
2017-06-23T12:58:52.265Z,65.43
2017-06-23T12:59:53.653Z,66.34
2017-06-23T13:00:55.040Z,66.56
2017-06-23T13:01:56.426Z,65.40
2017-06-23T13:02:57.819Z,65.11
2017-06-23T13:03:59.211Z,64.43
2017-06-23T13:05:00.607Z,65.24
2017-06-23T13:06:02.003Z,65.14
2017-06-23T13:07:03.393Z,65.69
2017-06-23T13:08:04.791Z,66.82
2017-06-23T13:09:06.208Z,67.34
2017-06-23T13:10:07.581Z,65.95